createdAt,value
2018-08-04T00:00:09.709Z,95.79
2018-08-04T00:01:19.557Z,94.63
2018-08-04T00:04:08.232Z,95.21
2018-08-04T00:05:17.804Z,95.01
2018-08-04T00:06:27.649Z,94.63
2018-08-04T00:07:37.503Z,94.43
2018-08-04T00:08:46.810Z,94.82
2018-08-04T00:09:56.927Z,94.63
2018-08-04T00:11:06.236Z,94.82
2018-08-04T00:12:16.081Z,94.92
2018-08-04T00:13:25.934Z,94.43
2018-08-04T00:14:35.779Z,94.92
2018-08-04T00:15:45.897Z,95.01
2018-08-04T00:16:55.475Z,95.31
2018-08-04T00:18:05.055Z,95.4
2018-08-04T00:19:14.673Z,94.92
2018-08-04T00:20:24.796Z,94.53
2018-08-04T00:21:34.644Z,94.15
2018-08-04T00:22:44.771Z,93.95
2018-08-04T00:23:54.638Z,93.28
2018-08-04T00:25:03.941Z,94.15
2018-08-04T00:26:13.793Z,94.24
2018-08-04T00:27:23.928Z,93.76
2018-08-04T00:28:33.768Z,94.24
2018-08-04T00:29:43.341Z,94.43
2018-08-04T00:30:53.184Z,94.43
2018-08-04T00:32:03.026Z,94.48
2018-08-04T00:33:12.872Z,93.91
2018-08-04T00:34:22.714Z,93.66
2018-08-04T00:35:32.555Z,93.76
2018-08-04T00:36:41.591Z,94.48
2018-08-04T00:37:51.170Z,94.2
2018-08-04T00:39:01.019Z,93.04
2018-08-04T00:40:10.589Z,93.13
2018-08-04T00:41:20.451Z,94
2018-08-04T00:42:30.293Z,93.71
2018-08-04T00:43:39.865Z,93.91
2018-08-04T00:44:49.972Z,94
2018-08-04T00:45:59.813Z,92.94
2018-08-04T00:47:09.930Z,93.13
2018-08-04T00:48:20.048Z,92.56
2018-08-04T00:49:29.619Z,93.62
2018-08-04T00:50:39.468Z,93.91
2018-08-04T00:51:49.044Z,94
2018-08-04T00:52:58.616Z,93.23
2018-08-04T00:54:08.193Z,91.98
2018-08-04T00:55:17.503Z,92.17
2018-08-04T00:56:27.345Z,92.94
2018-08-04T00:57:36.648Z,92.85
2018-08-04T00:58:46.228Z,91.93
2018-08-04T00:59:56.078Z,92.36
2018-08-04T01:01:05.935Z,92.65
2018-08-04T01:02:15.782Z,91.88
2018-08-04T01:03:25.895Z,92.36
2018-08-04T01:04:35.742Z,92.08
2018-08-04T01:05:45.319Z,92.17
2018-08-04T01:06:54.623Z,91.6
2018-08-04T01:08:04.477Z,91.88
2018-08-04T01:09:14.326Z,91.5
2018-08-04T01:10:23.901Z,91.98
2018-08-04T01:11:33.209Z,91.4
2018-08-04T01:12:43.050Z,91.88
2018-08-04T01:13:52.626Z,91.5
2018-08-04T01:15:02.205Z,91.5
2018-08-04T01:16:11.559Z,91.78
2018-08-04T01:17:20.872Z,90.88
2018-08-04T01:18:30.714Z,90.48
2018-08-04T01:19:40.024Z,90.97
2018-08-04T01:20:49.596Z,90.53
2018-08-04T01:21:59.175Z,90.72
2018-08-04T01:23:08.746Z,90.78
2018-08-04T01:24:18.055Z,90.48
2018-08-04T01:25:27.897Z,90.58
2018-08-04T01:26:37.736Z,90.78
2018-08-04T01:27:47.632Z,90.48
2018-08-04T01:28:57.747Z,90.3
2018-08-04T01:30:07.319Z,90
2018-08-04T01:31:16.627Z,90
2018-08-04T01:32:26.503Z,89.33
2018-08-04T01:33:36.079Z,89.72
2018-08-04T01:34:45.655Z,89.53
2018-08-04T01:35:54.969Z,89.81
2018-08-04T01:37:05.097Z,89.04
2018-08-04T01:38:14.944Z,88.85
2018-08-04T01:39:24.309Z,89.14
2018-08-04T01:40:34.421Z,89.14
2018-08-04T01:41:43.455Z,89.04
2018-08-04T01:42:53.342Z,88.37
2018-08-04T01:44:03.222Z,89.04
2018-08-04T01:45:13.123Z,89.33
2018-08-04T01:46:23.237Z,88.65
2018-08-04T01:47:33.079Z,88.85
2018-08-04T01:48:42.922Z,88.17
2018-08-04T01:49:52.234Z,87.6
2018-08-04T01:51:02.360Z,87.98
2018-08-04T01:52:12.507Z,87.3
2018-08-04T01:53:22.351Z,87.7
2018-08-04T01:54:31.921Z,87.21
2018-08-04T01:55:41.491Z,86.35
2018-08-04T01:56:51.067Z,87.12
2018-08-04T01:58:00.917Z,86.73
2018-08-04T01:59:10.968Z,86.35
2018-08-04T02:00:20.611Z,86.35
2018-08-04T02:01:30.472Z,86.25
2018-08-04T02:02:40.315Z,86.05
2018-08-04T02:03:49.895Z,86.25
2018-08-04T02:04:59.194Z,86.15
2018-08-04T02:06:08.768Z,86.25
2018-08-04T02:07:18.725Z,86.35
2018-08-04T02:08:28.772Z,86.21
2018-08-04T02:09:38.344Z,86.3
2018-08-04T02:10:48.188Z,86.21
2018-08-04T02:11:57.758Z,85.86
2018-08-04T02:13:07.335Z,85.34
2018-08-04T02:14:16.912Z,85.63
2018-08-04T02:15:26.765Z,85.77
2018-08-04T02:16:36.341Z,86.05
2018-08-04T02:17:46.181Z,85.24
2018-08-04T02:18:55.491Z,85.47
2018-08-04T02:20:04.257Z,85.43
2018-08-04T02:21:13.835Z,85.43
2018-08-04T02:22:23.949Z,84.95
2018-08-04T02:23:33.523Z,84.56
2018-08-04T02:24:43.361Z,85.05
2018-08-04T02:25:53.480Z,84.8
2018-08-04T02:27:03.055Z,84.52
2018-08-04T02:28:12.636Z,84.03
2018-08-04T02:29:22.480Z,84.99
2018-08-04T02:30:32.057Z,84.22
2018-08-04T02:31:42.176Z,85.14
2018-08-04T02:32:52.031Z,84.61
2018-08-04T02:34:01.613Z,85.19
2018-08-04T02:35:11.474Z,84.18
2018-08-04T02:36:21.347Z,84.66
2018-08-04T02:37:31.256Z,84.47
2018-08-04T02:38:41.385Z,84.95
2018-08-04T02:39:51.518Z,83.61
2018-08-04T02:41:01.107Z,84.03
2018-08-04T02:42:11.012Z,84.28
2018-08-04T02:43:20.650Z,84.42
2018-08-04T02:44:30.773Z,84.18
2018-08-04T02:45:40.893Z,84.28
2018-08-04T02:46:50.485Z,83.99
2018-08-04T02:48:00.399Z,84.18
2018-08-04T02:49:09.985Z,83.7
2018-08-04T02:50:19.021Z,83.7
2018-08-04T02:51:28.594Z,83.8
2018-08-04T02:52:38.438Z,83.41
2018-08-04T02:53:48.031Z,83.12
2018-08-04T02:54:57.873Z,82.83
2018-08-04T02:56:07.453Z,83.12
2018-08-04T02:57:17.028Z,83.22
2018-08-04T02:58:26.875Z,82.93
2018-08-04T02:59:36.730Z,83.41
2018-08-04T03:00:46.633Z,83.03
2018-08-04T03:01:56.493Z,83.12
2018-08-04T03:03:06.359Z,83.12
2018-08-04T03:04:16.485Z,82.64
2018-08-04T03:05:25.791Z,82.54
2018-08-04T03:06:35.922Z,82.16
2018-08-04T03:07:46.041Z,82.64
2018-08-04T03:08:56.172Z,83.12
2018-08-04T03:10:05.766Z,82.64
2018-08-04T03:11:15.614Z,83.12
2018-08-04T03:12:25.789Z,82.45
2018-08-04T03:13:34.829Z,82.45
2018-08-04T03:14:44.414Z,82.35
2018-08-04T03:15:53.995Z,82.54
2018-08-04T03:17:03.582Z,82.64
2018-08-04T03:18:13.496Z,82.74
2018-08-04T03:19:23.346Z,82.35
2018-08-04T03:20:32.951Z,82.06
2018-08-04T03:21:42.530Z,82.06
2018-08-04T03:22:52.381Z,82.26
2018-08-04T03:24:02.229Z,82.35
2018-08-04T03:25:11.813Z,82.06
2018-08-04T03:26:21.401Z,82.26
2018-08-04T03:27:31.253Z,81.96
2018-08-04T03:28:41.401Z,82.26
2018-08-04T03:29:50.982Z,82.64
2018-08-04T03:31:00.559Z,82.26
2018-08-04T03:32:09.879Z,82.45
2018-08-04T03:33:19.460Z,82.35
2018-08-04T03:34:29.629Z,81.87
2018-08-04T03:35:39.480Z,82.45
2018-08-04T03:36:49.331Z,82.06
2018-08-04T03:37:58.635Z,81.96
2018-08-04T03:39:07.946Z,82.06
2018-08-04T03:40:17.793Z,81.87
2018-08-04T03:41:27.635Z,81.77
2018-08-04T03:42:36.940Z,81.87
2018-08-04T03:43:46.789Z,82.45
2018-08-04T03:44:56.629Z,81.87
2018-08-04T03:46:05.668Z,82.26
2018-08-04T03:47:15.238Z,81.96
2018-08-04T03:48:25.348Z,81.96
2018-08-04T03:49:34.918Z,82.16
2018-08-04T03:50:44.502Z,81.87
2018-08-04T03:51:54.080Z,82.06
2018-08-04T03:53:03.922Z,81.96
2018-08-04T03:54:14.035Z,81.77
2018-08-04T03:55:23.348Z,81.58
2018-08-04T03:56:33.185Z,81.58
2018-08-04T03:57:43.032Z,81.77
2018-08-04T03:58:53.161Z,82.16
2018-08-04T04:00:03.278Z,81.87
2018-08-04T04:01:13.127Z,81.68
2018-08-04T04:02:22.974Z,81.87
2018-08-04T04:03:32.556Z,81.58
2018-08-04T04:04:42.448Z,81.58
2018-08-04T04:05:52.294Z,81.58
2018-08-04T04:07:02.424Z,81.52
2018-08-04T04:08:12.005Z,81.58
2018-08-04T04:09:21.580Z,82.01
2018-08-04T04:10:31.155Z,82.16
2018-08-04T04:11:40.466Z,82.06
2018-08-04T04:12:49.769Z,82.16
2018-08-04T04:13:59.344Z,81.96
2018-08-04T04:15:09.192Z,82.2
2018-08-04T04:16:19.342Z,82.26
2018-08-04T04:17:29.181Z,81.77
2018-08-04T04:18:39.034Z,82.01
2018-08-04T04:19:48.605Z,82.06
2018-08-04T04:20:58.178Z,82.06
2018-08-04T04:22:07.490Z,81.87
2018-08-04T04:23:17.383Z,82.1
2018-08-04T04:24:26.955Z,81.48
2018-08-04T04:25:36.800Z,82.26
2018-08-04T04:26:46.651Z,81.48
2018-08-04T04:27:56.499Z,82.01
2018-08-04T04:29:06.632Z,81.58
2018-08-04T04:30:16.473Z,81.96
2018-08-04T04:31:26.051Z,81.62
2018-08-04T04:32:35.894Z,81.62
2018-08-04T04:33:45.251Z,81.72
2018-08-04T04:34:55.097Z,81.58
2018-08-04T04:36:04.946Z,81.48
2018-08-04T04:37:14.301Z,81.39
2018-08-04T04:38:24.424Z,82.16
2018-08-04T04:39:34.328Z,81.58
2018-08-04T04:40:43.903Z,81.39
2018-08-04T04:41:53.213Z,81.48
2018-08-04T04:43:03.336Z,81.2
2018-08-04T04:44:12.914Z,81.39
2018-08-04T04:45:22.490Z,81.29
2018-08-04T04:46:32.344Z,81.29
2018-08-04T04:47:42.216Z,80.71
2018-08-04T04:48:52.069Z,81.2
2018-08-04T04:50:01.925Z,81.2
2018-08-04T04:51:11.280Z,81.58
2018-08-04T04:52:21.392Z,81.2
2018-08-04T04:53:31.238Z,80.71
2018-08-04T04:54:40.276Z,81.01
2018-08-04T04:55:50.399Z,81.24
2018-08-04T04:56:59.976Z,80.94
2018-08-04T04:58:09.831Z,81.1
2018-08-04T04:59:19.963Z,80.94
2018-08-04T05:00:29.268Z,81.14
2018-08-04T05:01:38.570Z,81.33
2018-08-04T05:02:48.426Z,80.66
2018-08-04T05:03:58.011Z,81.14
2018-08-04T05:05:07.595Z,81.24
2018-08-04T05:06:17.188Z,81.04
2018-08-04T05:07:27.300Z,80.94
2018-08-04T05:08:37.179Z,80.94
2018-08-04T05:09:46.893Z,80.94
2018-08-04T05:10:56.750Z,80.85
2018-08-04T05:12:06.057Z,81.14
2018-08-04T05:13:16.279Z,80.94
2018-08-04T05:14:26.275Z,80.94
2018-08-04T05:15:36.397Z,80.94
2018-08-04T05:16:45.972Z,81.33
2018-08-04T05:17:56.086Z,80.56
2018-08-04T05:19:05.669Z,81.04
2018-08-04T05:20:15.566Z,81.14
2018-08-04T05:21:25.201Z,80.66
2018-08-04T05:22:35.177Z,80.46
2018-08-04T05:23:44.480Z,80.37
2018-08-04T05:24:54.057Z,80.94
2018-08-04T05:26:03.628Z,81.04
2018-08-04T05:27:13.202Z,80.46
2018-08-04T05:28:22.779Z,80.79
2018-08-04T05:29:32.088Z,81.04
2018-08-04T05:30:42.205Z,80.94
2018-08-04T05:31:51.512Z,80.79
2018-08-04T05:33:01.572Z,80.79
2018-08-04T05:34:11.155Z,80.99
2018-08-04T05:35:21.009Z,80.89
2018-08-04T05:36:31.136Z,80.99
2018-08-04T05:37:40.986Z,81.18
2018-08-04T05:38:51.100Z,81.09
2018-08-04T05:40:00.939Z,81.37
2018-08-04T05:41:11.055Z,81.47
2018-08-04T05:42:20.901Z,81.18
2018-08-04T05:43:30.858Z,81.27
2018-08-04T05:44:40.320Z,81.09
2018-08-04T05:45:49.623Z,81.27
2018-08-04T05:46:59.205Z,81.37
2018-08-04T05:48:09.326Z,81.37
2018-08-04T05:49:19.191Z,81.09
2018-08-04T05:50:28.504Z,81.37
2018-08-04T05:51:38.346Z,81.37
2018-08-04T05:52:48.477Z,81.18
2018-08-04T05:53:58.588Z,81.37
2018-08-04T05:55:08.437Z,81.18
2018-08-04T05:56:18.281Z,81.47
2018-08-04T05:57:28.401Z,81.37
2018-08-04T05:58:37.705Z,81.57
2018-08-04T05:59:47.559Z,81.37
2018-08-04T06:00:56.870Z,81.57
2018-08-04T06:02:06.735Z,81.66
2018-08-04T06:03:16.670Z,81.95
2018-08-04T06:04:26.869Z,82.05
2018-08-04T06:05:37.004Z,82.05
2018-08-04T06:06:46.865Z,81.66
2018-08-04T06:07:56.708Z,81.76
2018-08-04T06:09:06.556Z,81.76
2018-08-04T06:10:16.669Z,81.95
2018-08-04T06:11:26.791Z,81.95
2018-08-04T06:12:36.371Z,81.95
2018-08-04T06:13:46.218Z,81.66
2018-08-04T06:14:55.794Z,81.95
2018-08-04T06:16:05.368Z,81.95
2018-08-04T06:17:14.954Z,81.66
2018-08-04T06:18:25.070Z,81.85
2018-08-04T06:19:34.908Z,81.66
2018-08-04T06:20:44.494Z,81.76
2018-08-04T06:21:54.339Z,82.24
2018-08-04T06:23:03.992Z,82.34
2018-08-04T06:24:13.620Z,81.76
2018-08-04T06:25:23.463Z,81.76
2018-08-04T06:26:33.572Z,82.24
2018-08-04T06:27:43.703Z,82.53
2018-08-04T06:28:53.553Z,81.57
2018-08-04T06:30:03.133Z,82.05
2018-08-04T06:31:12.710Z,81.57
2018-08-04T06:32:22.555Z,82.34
2018-08-04T06:33:32.438Z,82.34
2018-08-04T06:34:42.276Z,82.24
2018-08-04T06:35:51.585Z,82.24
2018-08-04T06:37:01.436Z,81.66
2018-08-04T06:38:11.285Z,81.95
2018-08-04T06:39:21.134Z,81.76
2018-08-04T06:40:30.980Z,81.57
2018-08-04T06:41:40.934Z,82.24
2018-08-04T06:42:51.272Z,82.24
2018-08-04T06:44:01.123Z,82.34
2018-08-04T06:45:10.693Z,82.24
2018-08-04T06:46:20.000Z,81.85
2018-08-04T06:47:29.849Z,81.7
2018-08-04T06:48:39.166Z,81.8
2018-08-04T06:49:49.011Z,82.28
2018-08-04T06:50:58.862Z,81.9
2018-08-04T06:52:08.709Z,82.38
2018-08-04T06:53:18.280Z,82.76
2018-08-04T06:54:28.128Z,82.18
2018-08-04T06:55:37.739Z,82.18
2018-08-04T06:56:47.590Z,81.8
2018-08-04T06:57:57.166Z,81.8
2018-08-04T06:59:07.288Z,82.18
2018-08-04T07:00:17.146Z,81.02
2018-08-04T07:01:26.987Z,82.38
2018-08-04T07:02:36.559Z,81.9
2018-08-04T07:03:46.404Z,81.45
2018-08-04T07:04:56.572Z,81.55
2018-08-04T07:06:06.170Z,81.35
2018-08-04T07:07:16.010Z,81.45
2018-08-04T07:08:25.854Z,81.16
2018-08-04T07:09:35.978Z,81.35
2018-08-04T07:10:45.826Z,81.45
2018-08-04T07:11:55.945Z,81.26
2018-08-04T07:13:05.524Z,81.26
2018-08-04T07:14:15.371Z,81.16
2018-08-04T07:15:24.941Z,81.26
2018-08-04T07:16:34.527Z,81.35
2018-08-04T07:17:44.373Z,81.65
2018-08-04T07:18:53.682Z,81.26
2018-08-04T07:20:02.992Z,81.3
2018-08-04T07:21:12.842Z,81.4
2018-08-04T07:22:22.685Z,81.49
2018-08-04T07:23:32.272Z,81.49
2018-08-04T07:24:41.841Z,81.49
2018-08-04T07:25:51.420Z,81.3
2018-08-04T07:27:01.000Z,82.07
2018-08-04T07:28:10.849Z,81.59
2018-08-04T07:29:20.429Z,81.49
2018-08-04T07:30:30.289Z,81.49
2018-08-04T07:31:40.131Z,81.49
2018-08-04T07:32:49.432Z,81.49
2018-08-04T07:33:58.463Z,81.4
2018-08-04T07:35:08.043Z,81.49
2018-08-04T07:36:17.899Z,81.68
2018-08-04T07:37:28.019Z,81.49
2018-08-04T07:38:37.610Z,81.49
2018-08-04T07:39:47.197Z,81.3
2018-08-04T07:40:57.154Z,81.59
2018-08-04T07:42:07.676Z,80.86
2018-08-04T07:43:17.792Z,81.24
2018-08-04T07:44:27.908Z,81.73
2018-08-04T07:45:38.019Z,81.44
2018-08-04T07:46:47.052Z,81.44
2018-08-04T07:47:56.633Z,81.63
2018-08-04T07:49:06.608Z,81.63
2018-08-04T07:50:17.025Z,81.53
2018-08-04T07:51:26.382Z,80.86
2018-08-04T07:52:35.965Z,81.53
2018-08-04T07:53:45.549Z,81.53
2018-08-04T07:54:55.128Z,81.82
2018-08-04T07:56:04.708Z,81.44
2018-08-04T07:57:14.286Z,81.63
2018-08-04T07:58:24.138Z,81.53
2018-08-04T07:59:33.952Z,81.73
2018-08-04T08:00:43.658Z,81.53
2018-08-04T08:01:53.232Z,81.63
2018-08-04T08:03:02.813Z,81.53
2018-08-04T08:04:12.392Z,81.57
2018-08-04T08:05:21.696Z,81.09
2018-08-04T08:06:31.558Z,81.77
2018-08-04T08:07:41.141Z,81.38
2018-08-04T08:08:50.715Z,81.77
2018-08-04T08:10:00.019Z,81.87
2018-08-04T08:11:09.348Z,81.87
2018-08-04T08:12:19.627Z,81.9
2018-08-04T08:13:29.205Z,81.71
2018-08-04T08:14:39.054Z,82.29
2018-08-04T08:15:48.950Z,81.9
2018-08-04T08:16:59.072Z,82
2018-08-04T08:18:08.375Z,82.2
2018-08-04T08:19:18.017Z,82.39
2018-08-04T08:20:27.927Z,82.87
2018-08-04T08:21:36.970Z,82.68
2018-08-04T08:22:46.818Z,82.97
2018-08-04T08:23:56.678Z,82.78
2018-08-04T08:25:06.259Z,83.3
2018-08-04T08:26:16.377Z,82.78
2018-08-04T08:27:26.224Z,82.78
2018-08-04T08:28:35.798Z,82.91
2018-08-04T08:29:45.656Z,83.11
2018-08-04T08:30:55.776Z,83.88
2018-08-04T08:32:05.629Z,83.78
2018-08-04T08:33:14.952Z,83.78
2018-08-04T08:34:24.802Z,83.49
2018-08-04T08:35:34.909Z,83.78
2018-08-04T08:36:44.752Z,83.78
2018-08-04T08:37:54.645Z,83.88
2018-08-04T08:39:04.489Z,83.88
2018-08-04T08:40:14.067Z,83.98
2018-08-04T08:41:23.750Z,83.83
2018-08-04T08:42:33.347Z,84.69
2018-08-04T08:43:43.468Z,84.21
2018-08-04T08:44:53.317Z,84.5
2018-08-04T08:46:03.176Z,84.69
2018-08-04T08:47:12.819Z,83.73
2018-08-04T08:48:22.491Z,83.92
2018-08-04T08:49:32.063Z,84.01
2018-08-04T08:50:41.642Z,84.6
2018-08-04T08:51:50.951Z,84.31
2018-08-04T08:53:00.340Z,84.31
2018-08-04T08:54:10.860Z,84.69
2018-08-04T08:55:21.211Z,84.41
2018-08-04T08:56:31.336Z,84.74
2018-08-04T08:57:40.656Z,84.45
2018-08-04T08:58:49.969Z,84.16
2018-08-04T09:00:00.096Z,84.64
2018-08-04T09:01:09.954Z,84.35
2018-08-04T09:02:20.165Z,84.45
2018-08-04T09:03:30.285Z,84.93
2018-08-04T09:04:40.142Z,84.93
2018-08-04T09:05:50.264Z,84.45
2018-08-04T09:07:00.163Z,84.55
2018-08-04T09:08:10.019Z,84.45
2018-08-04T09:09:19.701Z,84.64
2018-08-04T09:10:29.559Z,84.55
2018-08-04T09:11:38.334Z,84.64
2018-08-04T09:12:47.906Z,84.64
2018-08-04T09:13:57.487Z,84.45
2018-08-04T09:15:07.076Z,84.88
2018-08-04T09:16:17.196Z,84.78
2018-08-04T09:17:26.780Z,84.49
2018-08-04T09:18:36.896Z,84.49
2018-08-04T09:19:46.480Z,84.88
2018-08-04T09:20:56.334Z,84.49
2018-08-04T09:22:06.174Z,83.81
2018-08-04T09:23:16.290Z,84.39
2018-08-04T09:24:26.138Z,84.92
2018-08-04T09:25:35.718Z,84.39
2018-08-04T09:26:45.331Z,83.95
2018-08-04T09:27:55.173Z,84.82
2018-08-04T09:29:04.209Z,83.85
2018-08-04T09:30:13.517Z,84.05
2018-08-04T09:31:23.093Z,84.92
2018-08-04T09:32:32.666Z,84.34
2018-08-04T09:33:42.516Z,85.11
2018-08-04T09:34:52.630Z,85.11
2018-08-04T09:36:02.207Z,85.11
2018-08-04T09:37:11.799Z,84.72
2018-08-04T09:38:21.692Z,84.92
2018-08-04T09:39:31.276Z,84.72
2018-08-04T09:40:41.154Z,84.82
2018-08-04T09:41:51.002Z,85.06
2018-08-04T09:43:00.037Z,84.09
2018-08-04T09:44:09.608Z,84.57
2018-08-04T09:45:18.651Z,85.06
2018-08-04T09:46:28.228Z,85.06
2018-08-04T09:47:38.346Z,84.86
2018-08-04T09:48:47.926Z,85.29
2018-08-04T09:49:57.245Z,84.81
2018-08-04T09:51:07.096Z,84.91
2018-08-04T09:52:16.677Z,85.06
2018-08-04T09:53:26.604Z,85.06
2018-08-04T09:54:36.455Z,85.49
2018-08-04T09:55:45.763Z,84.86
2018-08-04T09:56:55.352Z,85.39
2018-08-04T09:58:05.206Z,84.96
2018-08-04T09:59:14.792Z,85.06
2018-08-04T10:00:24.376Z,84.12
2018-08-04T10:01:34.229Z,84.22
2018-08-04T10:02:43.539Z,83.54
2018-08-04T10:03:53.694Z,84.12
2018-08-04T10:05:03.830Z,85.39
2018-08-04T10:06:13.914Z,84.52
2018-08-04T10:07:23.490Z,84.42
2018-08-04T10:08:33.606Z,84.71
2018-08-04T10:09:43.450Z,85.19
2018-08-04T10:10:53.326Z,84.42
2018-08-04T10:12:02.651Z,83.74
2018-08-04T10:13:12.238Z,84.52
2018-08-04T10:14:22.364Z,84.91
2018-08-04T10:15:32.209Z,85.19
2018-08-04T10:16:42.057Z,84.32
2018-08-04T10:17:51.633Z,84.71
2018-08-04T10:19:01.207Z,83.39
2018-08-04T10:20:11.377Z,84.46
2018-08-04T10:21:21.802Z,83.59
2018-08-04T10:22:31.109Z,83
2018-08-04T10:23:41.245Z,81.93
2018-08-04T10:24:51.372Z,83.39
2018-08-04T10:26:01.277Z,83.49
2018-08-04T10:27:11.426Z,82.71
2018-08-04T10:28:21.285Z,82.71
2018-08-04T10:29:30.595Z,82.71
2018-08-04T10:30:39.905Z,83.39
2018-08-04T10:31:50.093Z,83.39
2018-08-04T10:33:00.138Z,81.16
2018-08-04T10:34:09.717Z,82.65
2018-08-04T10:35:19.019Z,82.07
2018-08-04T10:36:28.862Z,82.46
2018-08-04T10:37:38.715Z,81.45
2018-08-04T10:38:48.564Z,83.14
2018-08-04T10:39:58.142Z,83.1
2018-08-04T10:41:07.456Z,83.2
2018-08-04T10:42:17.032Z,82.75
2018-08-04T10:43:26.345Z,82.27
2018-08-04T10:44:36.261Z,81.88
2018-08-04T10:45:46.385Z,82.85
2018-08-04T10:46:56.236Z,82.75
2018-08-04T10:48:06.361Z,82.65
2018-08-04T10:49:16.475Z,81.01
2018-08-04T10:50:26.606Z,80.42
2018-08-04T10:51:36.458Z,80.81
2018-08-04T10:52:45.760Z,80.76
2018-08-04T10:53:55.345Z,79.3
2018-08-04T10:55:05.462Z,80.36
2018-08-04T10:56:15.040Z,80.56
2018-08-04T10:57:24.346Z,81.43
2018-08-04T10:58:34.197Z,80.27
2018-08-04T10:59:43.511Z,80.17
2018-08-04T11:00:53.383Z,77.87
2018-08-04T11:02:03.231Z,78.46
2018-08-04T11:03:12.812Z,79.82
2018-08-04T11:04:22.389Z,80.11
2018-08-04T11:05:31.699Z,80.99
2018-08-04T11:06:41.552Z,80.79
2018-08-04T11:07:51.140Z,79.24
2018-08-04T11:09:00.454Z,79.57
2018-08-04T11:10:10.585Z,78.79
2018-08-04T11:11:20.210Z,79.86
2018-08-04T11:12:30.161Z,80.35
2018-08-04T11:13:39.878Z,80.15
2018-08-04T11:14:49.457Z,79.76
2018-08-04T11:15:59.302Z,80.35
2018-08-04T11:17:08.613Z,79.96
2018-08-04T11:18:18.539Z,80.05
2018-08-04T11:19:28.391Z,79.28
2018-08-04T11:20:38.508Z,79.47
2018-08-04T11:21:48.100Z,79.38
2018-08-04T11:22:58.217Z,79.66
2018-08-04T11:24:07.842Z,78.92
2018-08-04T11:25:18.424Z,78.89
2018-08-04T11:26:28.006Z,78.53
2018-08-04T11:27:37.979Z,77.95
2018-08-04T11:28:48.106Z,77.66
2018-08-04T11:29:57.150Z,78.34
2018-08-04T11:31:06.461Z,78.15
2018-08-04T11:32:16.041Z,77.56
2018-08-04T11:33:25.890Z,77.08
2018-08-04T11:34:35.474Z,76.34
2018-08-04T11:35:45.323Z,77.11
2018-08-04T11:36:54.909Z,77.99
2018-08-04T11:38:04.483Z,77.99
2018-08-04T11:39:14.113Z,77.5
2018-08-04T11:40:23.693Z,76.4
2018-08-04T11:41:33.536Z,76.34
2018-08-04T11:42:43.656Z,77.34
2018-08-04T11:43:52.693Z,77.54
2018-08-04T11:45:02.545Z,78.48
2018-08-04T11:46:12.672Z,78.09
2018-08-04T11:47:22.524Z,78.28
2018-08-04T11:48:32.641Z,77.7
2018-08-04T11:49:42.493Z,77.5
2018-08-04T11:50:51.802Z,76.92
2018-08-04T11:52:01.969Z,76.96
2018-08-04T11:53:11.545Z,77.54
2018-08-04T11:54:21.117Z,78.03
2018-08-04T11:55:30.969Z,78.19
2018-08-04T11:56:40.821Z,77.25
2018-08-04T11:57:50.449Z,77.25
2018-08-04T11:59:00.300Z,76.67
2018-08-04T12:00:09.979Z,76.28
2018-08-04T12:01:19.560Z,76.51
2018-08-04T12:02:29.686Z,76.47
2018-08-04T12:03:39.547Z,76.18
2018-08-04T12:04:49.137Z,76.08
2018-08-04T12:05:58.174Z,75.79
2018-08-04T12:07:07.767Z,76.18
2018-08-04T12:08:17.715Z,76.57
2018-08-04T12:09:27.578Z,75.79
2018-08-04T12:10:37.409Z,75.82
2018-08-04T12:11:46.992Z,75.14
2018-08-04T12:12:56.573Z,76.02
2018-08-04T12:14:06.153Z,73.97
2018-08-04T12:15:16.272Z,74.69
2018-08-04T12:16:25.312Z,74.11
2018-08-04T12:17:35.160Z,73.43
2018-08-04T12:18:44.744Z,74.01
2018-08-04T12:19:54.872Z,72.39
2018-08-04T12:21:04.734Z,73.36
2018-08-04T12:22:14.315Z,72.88
2018-08-04T12:23:24.440Z,73.27
2018-08-04T12:24:34.290Z,72.39
2018-08-04T12:25:44.153Z,71.74
2018-08-04T12:26:54.100Z,70.47
2018-08-04T12:28:03.146Z,71.48
2018-08-04T12:29:12.466Z,71.29
2018-08-04T12:30:21.775Z,69.82
2018-08-04T12:31:31.803Z,70.02
2018-08-04T12:32:41.846Z,69.63
2018-08-04T12:33:51.161Z,69.69
2018-08-04T12:35:00.740Z,70.31
2018-08-04T12:36:10.598Z,71.09
2018-08-04T12:37:20.189Z,70.96
2018-08-04T12:38:29.820Z,70.37
2018-08-04T12:39:39.684Z,70.21
2018-08-04T12:40:49.283Z,70.8
2018-08-04T12:41:58.879Z,70.51
2018-08-04T12:43:08.464Z,69.56
2018-08-04T12:44:18.320Z,68.52
2018-08-04T12:45:28.225Z,68.49
2018-08-04T12:46:38.302Z,68.62
2018-08-04T12:47:47.888Z,68.68
2018-08-04T12:48:57.475Z,68.59
2018-08-04T12:50:07.069Z,68.52
2018-08-04T12:51:16.661Z,68.42
2018-08-04T12:52:26.803Z,68.42
2018-08-04T12:53:36.399Z,69.7
2018-08-04T12:54:46.265Z,67.74
2018-08-04T12:55:55.581Z,67.09
2018-08-04T12:57:05.185Z,66.2
2018-08-04T12:58:15.315Z,67.41
2018-08-04T12:59:25.175Z,68
2018-08-04T13:00:34.836Z,67.58
2018-08-04T13:01:43.897Z,66.89
2018-08-04T13:02:54.109Z,67.9
2018-08-04T13:04:03.698Z,66.53
2018-08-04T13:05:13.281Z,67.12
2018-08-04T13:06:22.863Z,67.58
2018-08-04T13:07:32.186Z,67.77
2018-08-04T13:08:42.450Z,67.64
2018-08-04T13:09:52.772Z,67.77
2018-08-04T13:11:02.904Z,66.99
2018-08-04T13:12:12.500Z,67.9
2018-08-04T13:13:22.092Z,67.68
2018-08-04T13:14:32.229Z,67.09
2018-08-04T13:15:41.281Z,66.93
2018-08-04T13:16:50.866Z,67.61
2018-08-04T13:18:00.725Z,66.8
2018-08-04T13:19:10.319Z,67.41
2018-08-04T13:20:19.635Z,67.97
2018-08-04T13:21:29.496Z,67.58
2018-08-04T13:22:39.617Z,67.02
2018-08-04T13:23:48.933Z,67.9
2018-08-04T13:24:58.848Z,67.38
2018-08-04T13:26:08.983Z,67.61
2018-08-04T13:27:18.562Z,67.71
2018-08-04T13:28:28.148Z,67.8
2018-08-04T13:29:38.064Z,67.02
2018-08-04T13:30:48.465Z,66.83
2018-08-04T13:31:58.323Z,67.41
2018-08-04T13:33:08.184Z,67.22
2018-08-04T13:34:17.502Z,67.51
2018-08-04T13:35:27.371Z,67.71
2018-08-04T13:36:36.959Z,67.61
2018-08-04T13:37:47.086Z,68.07
2018-08-04T13:38:56.399Z,68.13
2018-08-04T13:40:05.981Z,68.55
2018-08-04T13:41:15.302Z,67.58
2018-08-04T13:42:25.155Z,68.07
2018-08-04T13:43:35.067Z,67.68
2018-08-04T13:44:44.413Z,67.58
2018-08-04T13:45:53.999Z,67.22
2018-08-04T13:47:03.050Z,66.99
2018-08-04T13:48:13.170Z,67.29
2018-08-04T13:49:22.768Z,67.77
2018-08-04T13:50:32.352Z,67.58
2018-08-04T13:51:41.668Z,67.38
2018-08-04T13:52:51.519Z,68.55
2018-08-04T13:54:01.112Z,68.26
2018-08-04T13:55:10.692Z,68.65
2018-08-04T13:56:20.555Z,68.95
2018-08-04T13:57:29.871Z,68.07
2018-08-04T13:58:39.186Z,67.51
2018-08-04T13:59:49.436Z,67.9
2018-08-04T14:00:59.324Z,67.44
2018-08-04T14:02:08.916Z,67.25
2018-08-04T14:03:18.776Z,67.77
2018-08-04T14:04:28.647Z,66.76
2018-08-04T14:05:37.970Z,67.19
2018-08-04T14:06:48.122Z,66.89
2018-08-04T14:07:58.271Z,67.19
2018-08-04T14:09:08.126Z,67.68
2018-08-04T14:10:17.714Z,67.54
2018-08-04T14:11:27.574Z,67.58
2018-08-04T14:12:37.432Z,67.64
2018-08-04T14:13:46.792Z,67.68
2018-08-04T14:14:56.654Z,67.68
2018-08-04T14:16:06.035Z,67.29
2018-08-04T14:17:15.908Z,66.4
2018-08-04T14:18:25.516Z,67.22
2018-08-04T14:19:35.149Z,67.19
2018-08-04T14:20:45.281Z,67.22
2018-08-04T14:21:54.916Z,67.19
2018-08-04T14:23:03.963Z,65.91
2018-08-04T14:24:13.551Z,66.79
2018-08-04T14:25:23.139Z,67.05
2018-08-04T14:26:33.259Z,68.23
2018-08-04T14:27:43.115Z,68.43
2018-08-04T14:28:53.188Z,68.62
2018-08-04T14:30:03.051Z,67.87
2018-08-04T14:31:12.373Z,68.26
2018-08-04T14:32:22.002Z,68.91
2018-08-04T14:33:31.875Z,69.08
2018-08-04T14:34:42.111Z,69.21
2018-08-04T14:35:52.098Z,68
2018-08-04T14:37:02.255Z,68.33
2018-08-04T14:38:11.312Z,69.18
2018-08-04T14:39:21.444Z,69.76
2018-08-04T14:40:31.322Z,70.15
2018-08-04T14:41:41.175Z,70.54
2018-08-04T14:42:50.559Z,70.15
2018-08-04T14:44:00.979Z,69.86
2018-08-04T14:45:10.303Z,70.06
2018-08-04T14:46:19.893Z,69.76
2018-08-04T14:47:29.750Z,69.31
2018-08-04T14:48:39.609Z,68.72
2018-08-04T14:49:49.192Z,67.84
2018-08-04T14:50:59.325Z,67.77
2018-08-04T14:52:08.693Z,67.97
2018-08-04T14:53:18.018Z,67.48
2018-08-04T14:54:27.338Z,67.32
2018-08-04T14:55:37.198Z,67.22
2018-08-04T14:56:46.516Z,67.61
2018-08-04T14:57:56.378Z,67.51
2018-08-04T14:59:05.692Z,66.63
2018-08-04T15:00:15.549Z,67.32
2018-08-04T15:01:25.675Z,67.02
2018-08-04T15:02:35.543Z,66.6